Time;durP1;ratioP1;P1;durP2;ratioP2;P2;SDS_P1;SDS_P2;PMS_P1;PMS_P2;Temp;Humidity;BMP_temperature;BMP_pressure;BME280_temperature;BME280_humidity;BME280_pressure;Samples;Min_cycle;Max_cycle;Signal;HPM_P1;HPM_P2
2023/01/04 00:00:47;;;;;;;1.63;1.00;;;;;;;5.24;76.56;101086.69;10457065;28;20063;-75
2023/01/04 00:05:49;;;;;;;3.55;1.40;;;;;;;5.20;76.59;101088.38;10459159;28;20489;-74
2023/01/04 00:10:51;;;;;;;3.78;1.30;;;;;;;5.20;76.12;101098.81;10459037;28;20053;-74
2023/01/04 00:15:53;;;;;;;1.95;1.20;;;;;;;5.21;75.73;101091.88;10459884;28;20040;-75
2023/01/04 00:20:54;;;;;;;2.75;1.23;;;;;;;5.13;76.03;101086.59;10461494;28;20043;-74
2023/01/04 00:25:56;;;;;;;3.58;1.30;;;;;;;4.98;76.44;101076.94;10460847;28;20068;-74
2023/01/04 00:31:01;;;;;;;2.42;1.35;;;;;;;4.95;76.59;101076.91;10459255;28;20096;-75
2023/01/04 00:36:05;;;;;;;1.27;1.02;;;;;;;4.94;76.91;101077.75;10457586;28;20048;-74
2023/01/04 00:41:08;;;;;;;2.17;1.35;;;;;;;4.95;76.23;101074.28;10455448;28;20103;-74
2023/01/04 00:46:30;;;;;;;2.67;1.10;;;;;;;4.85;76.97;101066.41;10457128;28;20418;-75
2023/01/04 00:51:33;;;;;;;2.30;1.45;;;;;;;4.77;77.31;101062.00;10455649;28;20041;-75
2023/01/04 00:56:35;;;;;;;2.28;1.20;;;;;;;4.61;78.22;101061.88;10463755;28;20482;-74
2023/01/04 01:01:39;;;;;;;3.00;1.35;;;;;;;4.60;78.27;101047.94;10464603;28;20414;-74
2023/01/04 01:06:41;;;;;;;2.47;1.33;;;;;;;4.52;78.53;101060.06;10465623;28;20047;-75
2023/01/04 01:11:43;;;;;;;2.88;1.30;;;;;;;4.58;78.59;101047.09;10465252;28;20076;-74
2023/01/04 01:16:45;;;;;;;1.95;0.98;;;;;;;4.48;78.84;101027.03;10470463;28;20065;-74
2023/01/04 01:21:58;;;;;;;0.90;0.80;;;;;;;4.45;78.94;101029.59;10465245;28;20045;-73
2023/01/04 01:27:00;;;;;;;2.17;1.00;;;;;;;4.21;79.76;101028.53;10463134;28;20037;-73
2023/01/04 01:32:02;;;;;;;2.78;1.00;;;;;;;4.28;79.80;101026.84;10463646;28;20053;-74
2023/01/04 01:37:04;;;;;;;1.55;0.90;;;;;;;4.12;80.07;101018.03;10462231;28;20041;-75
2023/01/04 01:42:10;;;;;;;4.68;1.67;;;;;;;3.86;82.17;101006.47;10463788;28;20072;-75
2023/01/04 01:47:20;;;;;;;3.95;1.60;;;;;;;3.60;84.13;101007.03;10462034;28;20063;-74
2023/01/04 01:52:29;;;;;;;3.95;2.05;;;;;;;3.46;84.83;100996.47;10463500;28;20048;-74
2023/01/04 01:57:35;;;;;;;4.45;2.10;;;;;;;3.41;85.57;100986.84;10462340;28;20044;-74
2023/01/04 02:02:43;;;;;;;4.53;2.25;;;;;;;3.26;86.99;100996.19;10463198;28;20049;-74
2023/01/04 02:07:46;;;;;;;3.38;2.25;;;;;;;3.16;87.48;100996.06;10460694;28;20037;-75
2023/01/04 02:12:50;;;;;;;3.28;2.15;;;;;;;3.24;86.37;100995.31;10461489;28;20051;-74
2023/01/04 02:18:16;;;;;;;2.75;2.08;;;;;;;3.20;86.55;100987.47;10461695;28;20052;-74
2023/01/04 02:23:37;;;;;;;2.93;2.63;;;;;;;3.02;87.36;100972.50;10463303;28;20041;-74
2023/01/04 02:29:08;;;;;;;3.28;2.47;;;;;;;3.07;86.97;100967.34;10461339;28;20044;-74
2023/01/04 02:34:19;;;;;;;3.67;2.30;;;;;;;3.16;87.12;100952.75;10461221;28;20441;-75
2023/01/04 02:39:32;;;;;;;2.70;2.17;;;;;;;3.27;86.50;100948.56;10462059;28;20065;-75
2023/01/04 02:44:52;;;;;;;2.95;2.35;;;;;;;2.91;86.86;100933.38;10463844;28;20122;-74
2023/01/04 02:55:14;;;;;;;4.80;2.42;;;;;;;2.67;88.67;100915.72;10460924;28;20045;-74
2023/01/04 03:06:14;;;;;;;2.63;1.90;;;;;;;2.66;89.33;100910.53;10460611;28;20542;-74
2023/01/04 03:06:21;;;;;;;4.22;2.60;;;;;;;2.36;89.97;100896.25;10462025;28;20081;-75
2023/01/04 03:16:54;;;;;;;3.85;2.65;;;;;;;2.12;91.79;100893.25;10459498;28;20060;-75
2023/01/04 03:21:56;;;;;;;3.30;2.10;;;;;;;2.22;90.99;100880.47;10460302;28;20103;-75
2023/01/04 03:49:20;;;;;;;4.28;2.22;;;;;;;2.50;89.04;100835.03;10461312;28;20045;-74
2023/01/04 03:54:28;;;;;;;2.92;2.10;;;;;;;2.40;89.54;100819.31;10456550;28;20049;-74
2023/01/04 03:59:35;;;;;;;4.00;2.47;;;;;;;2.48;88.92;100800.41;10469166;22;20071;-73
2023/01/04 04:09:57;;;;;;;3.53;2.85;;;;;;;2.39;89.25;100787.31;10459372;28;20550;-73
2023/01/04 04:14:58;;;;;;;3.33;3.00;;;;;;;2.13;90.62;100780.91;10460184;28;20044;-73
2023/01/04 04:20:00;;;;;;;4.82;3.28;;;;;;;2.05;91.20;100783.38;10458674;28;20387;-73
2023/01/04 04:25:02;;;;;;;4.13;3.47;;;;;;;2.15;91.51;100768.81;10459126;28;20486;-73
2023/01/04 04:30:04;;;;;;;5.50;3.63;;;;;;;2.30;91.06;100757.75;10465154;28;20512;-73
2023/01/04 04:35:06;;;;;;;4.35;3.95;;;;;;;2.25;90.47;100753.38;10467432;28;20045;-73
2023/01/04 04:41:37;;;;;;;4.10;3.70;;;;;;;2.01;91.54;100740.09;10466449;28;20049;-73
2023/01/04 04:45:30;;;;;;;4.53;4.13;;;;;;;2.15;91.96;100729.91;10465891;28;20065;-73
2023/01/04 04:50:32;;;;;;;5.35;4.82;;;;;;;2.12;92.59;100737.63;10465739;28;20053;-73
2023/01/04 04:55:34;;;;;;;4.70;3.92;;;;;;;1.87;92.71;100726.94;10465965;28;20466;-74
2023/01/04 05:00:35;;;;;;;7.95;4.95;;;;;;;1.72;93.32;100713.72;10464674;28;20049;-73
2023/01/04 05:05:37;;;;;;;7.00;5.13;;;;;;;1.98;93.54;100717.56;10464251;28;20041;-72
2023/01/04 05:10:39;;;;;;;5.45;4.95;;;;;;;2.00;92.55;100702.06;10463334;28;20554;-72
2023/01/04 05:15:44;;;;;;;5.72;5.07;;;;;;;1.88;92.55;100700.16;10464326;28;20041;-72
2023/01/04 05:20:46;;;;;;;6.30;5.70;;;;;;;1.79;93.59;100697.44;10464767;28;20049;-73
2023/01/04 05:26:06;;;;;;;7.22;6.55;;;;;;;1.78;94.70;100672.38;10465214;28;20044;-73
2023/01/04 05:31:08;;;;;;;7.85;7.10;;;;;;;1.82;94.66;100663.78;10462603;28;20056;-73
2023/01/04 05:36:10;;;;;;;17.20;6.95;;;;;;;1.84;94.82;100645.66;10462519;28;20053;-73
2023/01/04 05:46:32;;;;;;;7.60;6.88;;;;;;;1.63;96.49;100633.25;10464469;28;20041;-73
2023/01/04 05:51:33;;;;;;;9.20;8.27;;;;;;;1.85;97.63;100630.09;10464005;28;20103;-73
2023/01/04 05:56:35;;;;;;;8.82;8.02;;;;;;;2.02;98.39;100623.41;10464590;28;20128;-72
2023/01/04 06:01:37;;;;;;;9.05;8.25;;;;;;;1.99;99.31;100607.84;10464815;28;20064;-73
2023/01/04 06:06:39;;;;;;;9.90;9.07;;;;;;;2.28;98.71;100597.78;10463123;28;20049;-73
2023/01/04 06:11:40;;;;;;;13.07;10.40;;;;;;;2.26;98.19;100581.34;10462858;28;20119;-73
2023/01/04 06:16:42;;;;;;;8.98;8.18;;;;;;;2.28;98.90;100570.97;10464907;28;20098;-73
2023/01/04 06:21:44;;;;;;;10.38;9.55;;;;;;;2.30;98.75;100573.56;10464925;28;20142;-73
2023/01/04 06:26:46;;;;;;;11.00;9.98;;;;;;;2.65;98.34;100555.75;10463089;28;20069;-72
2023/01/04 06:31:48;;;;;;;10.13;9.13;;;;;;;2.65;96.72;100537.56;10462813;28;20487;-73
2023/01/04 06:36:49;;;;;;;9.98;9.02;;;;;;;2.68;96.21;100528.09;10463405;28;20044;-73
2023/01/04 06:41:51;;;;;;;8.23;7.43;;;;;;;2.76;96.44;100517.78;10461693;28;20045;-73
2023/01/04 06:46:53;;;;;;;6.78;6.18;;;;;;;2.88;96.46;100520.47;10462604;28;20044;-73
2023/01/04 06:51:55;;;;;;;7.05;6.45;;;;;;;3.08;95.36;100509.34;10462029;28;20045;-73
2023/01/04 06:56:57;;;;;;;7.75;6.95;;;;;;;3.04;95.66;100500.66;10462312;28;20092;-73
2023/01/04 07:01:58;;;;;;;7.32;6.07;;;;;;;3.53;93.39;100504.38;10463399;28;20051;-72
2023/01/04 07:07:01;;;;;;;2.90;2.15;;;;;;;4.36;85.66;100494.19;10462140;28;20041;-72
2023/01/04 07:12:03;;;;;;;2.92;1.67;;;;;;;4.68;82.85;100490.72;10460292;28;20049;-73
2023/01/04 07:17:04;;;;;;;5.35;4.88;;;;;;;4.61;82.92;100483.81;10460227;28;20049;-73
2023/01/04 07:22:06;;;;;;;5.07;4.57;;;;;;;4.27;85.49;100476.84;10443205;28;20048;-73
2023/01/04 07:27:11;;;;;;;2.38;1.92;;;;;;;4.45;83.17;100482.94;10442725;28;20090;-73
2023/01/04 07:32:13;;;;;;;2.75;2.13;;;;;;;5.32;77.93;100485.41;10459260;28;20075;-73
2023/01/04 07:37:15;;;;;;;1.70;0.57;;;;;;;5.79;72.38;100479.13;10460044;28;20498;-74
2023/01/04 07:42:18;;;;;;;1.45;0.70;;;;;;;6.23;70.31;100457.13;10460952;28;20041;-73
2023/01/04 07:47:20;;;;;;;1.42;0.70;;;;;;;6.42;69.61;100456.13;10459164;28;20056;-73
2023/01/04 07:52:22;;;;;;;1.95;0.70;;;;;;;6.55;68.38;100478.66;10442885;28;20475;-74
2023/01/04 07:57:24;;;;;;;1.67;0.55;;;;;;;6.51;68.48;100473.47;10460428;28;20041;-72
2023/01/04 08:02:26;;;;;;;1.80;0.63;;;;;;;6.87;66.44;100477.50;10462225;28;20124;-73
2023/01/04 08:07:28;;;;;;;2.95;0.70;;;;;;;6.92;67.27;100465.25;10459970;28;20041;-73
2023/01/04 08:12:30;;;;;;;1.63;0.70;;;;;;;7.12;65.12;100461.53;10458373;28;20532;-73
2023/01/04 08:17:31;;;;;;;1.25;0.70;;;;;;;7.31;64.75;100455.25;10459966;28;20095;-73
2023/01/04 08:22:33;;;;;;;1.65;0.40;;;;;;;7.47;63.35;100428.00;10458561;28;20049;-73
2023/01/04 08:27:35;;;;;;;2.08;0.50;;;;;;;7.48;63.24;100421.00;10459570;28;20490;-74
2023/01/04 08:32:38;;;;;;;1.48;0.38;;;;;;;7.74;62.57;100391.88;10458815;28;20075;-73
2023/01/04 08:37:40;;;;;;;0.50;0.50;;;;;;;7.64;61.15;100369.38;10461669;28;20041;-81
2023/01/04 08:42:42;;;;;;;0.60;0.40;;;;;;;7.56;62.61;100364.22;10478075;28;20053;-81
2023/01/04 08:47:44;;;;;;;0.28;0.28;;;;;;;7.73;61.11;100353.53;10478233;28;20045;-80
2023/01/04 08:52:46;;;;;;;1.45;0.40;;;;;;;7.82;61.63;100345.53;10476756;28;20045;-80
2023/01/04 08:57:48;;;;;;;0.73;0.40;;;;;;;8.00;62.26;100332.16;10477466;28;20052;-80
2023/01/04 09:02:51;;;;;;;0.98;0.40;;;;;;;7.94;62.48;100332.25;10474609;28;20041;-82
2023/01/04 09:07:53;;;;;;;1.05;0.52;;;;;;;7.71;66.44;100318.69;10476797;28;20049;-78
2023/01/04 09:12:55;;;;;;;1.35;0.40;;;;;;;7.59;67.37;100323.19;10476409;28;20044;-81
2023/01/04 09:17:57;;;;;;;1.35;0.40;;;;;;;7.62;67.07;100321.44;10480584;28;20048;-78
2023/01/04 09:23:18;;;;;;;0.95;0.40;;;;;;;7.70;67.98;100315.22;10484970;28;20072;-80
2023/01/04 09:28:21;;;;;;;1.30;0.30;;;;;;;7.76;66.75;100299.41;10482319;28;20566;-80
2023/01/04 09:33:22;;;;;;;1.70;0.50;;;;;;;7.57;69.29;100297.97;10466969;28;20506;-80
2023/01/04 09:38:44;;;;;;;0.47;0.40;;;;;;;7.66;69.15;100289.09;10485501;28;20041;-78
2023/01/04 09:43:48;;;;;;;0.60;0.40;;;;;;;7.69;70.09;100270.72;10485994;28;20048;-79
2023/01/04 09:48:59;;;;;;;1.52;0.50;;;;;;;7.55;73.29;100255.25;10479342;28;20099;-80
2023/01/04 09:54:06;;;;;;;0.35;0.30;;;;;;;7.78;71.73;100249.63;10474508;28;20098;-74
2023/01/04 09:59:15;;;;;;;0.65;0.40;;;;;;;7.74;71.60;100233.13;10475933;22;20073;-73
2023/01/04 10:04:44;;;;;;;0.82;0.30;;;;;;;7.93;69.69;100245.91;10460635;28;20041;-73
2023/01/04 10:09:46;;;;;;;1.13;0.30;;;;;;;8.00;70.79;100231.81;10460408;28;20490;-73
2023/01/04 10:15:43;;;;;;;0.60;0.60;;;;;;;7.88;75.35;100217.22;10460568;28;20060;-73
2023/01/04 10:20:50;;;;;;;1.33;0.30;;;;;;;7.74;78.10;100211.31;10444875;28;20555;-73
2023/01/04 10:26:14;;;;;;;3.38;0.32;;;;;;;7.72;78.59;100190.44;10458259;28;20072;-73
2023/01/04 10:31:28;;;;;;;0.73;0.40;;;;;;;7.71;81.26;100193.94;10458552;28;20044;-73
2023/01/04 10:36:44;;;;;;;2.28;0.38;;;;;;;7.50;86.40;100203.03;10460141;28;20082;-73
2023/01/04 10:41:56;;;;;;;0.95;0.60;;;;;;;7.44;88.62;100190.06;10459042;28;20045;-73
2023/01/04 10:47:01;;;;;;;1.65;0.77;;;;;;;7.36;90.21;100189.31;10458054;28;20041;-73
2023/01/04 10:52:11;;;;;;;0.40;0.40;;;;;;;7.28;93.54;100180.72;10459765;28;20045;-72
2023/01/04 10:57:28;;;;;;;1.23;0.50;;;;;;;7.22;93.51;100152.94;10461915;28;20095;-72
2023/01/04 11:02:42;;;;;;;1.38;0.43;;;;;;;7.33;93.10;100153.59;10458958;28;20418;-73
2023/01/04 11:07:51;;;;;;;1.77;0.65;;;;;;;7.48;90.17;100147.28;10458929;28;20033;-73
2023/01/04 11:12:53;;;;;;;1.50;0.43;;;;;;;7.59;89.85;100113.91;10457125;28;20139;-72
2023/01/04 11:17:55;;;;;;;1.58;0.47;;;;;;;7.59;90.37;100094.75;10458636;28;20501;-73
2023/01/04 11:23:26;;;;;;;1.02;0.40;;;;;;;7.77;88.09;100096.16;10457818;28;20065;-73
2023/01/04 11:28:33;;;;;;;1.73;0.57;;;;;;;7.78;89.06;100084.78;10412155;28;20092;-72
2023/01/04 11:33:59;;;;;;;1.05;0.45;;;;;;;7.93;85.60;100076.66;10412031;28;20050;-71
2023/01/04 11:39:01;;;;;;;0.70;0.50;;;;;;;7.93;86.36;100079.25;10396779;28;20053;-72
2023/01/04 11:44:05;;;;;;;0.63;0.47;;;;;;;8.08;84.21;100076.31;10412057;28;20065;-72
2023/01/04 11:49:18;;;;;;;0.90;0.60;;;;;;;8.03;85.17;100079.94;10413489;28;20124;-72
2023/01/04 11:54:20;;;;;;;0.55;0.40;;;;;;;8.12;83.61;100077.13;10411565;28;20052;-72
2023/01/04 11:59:21;;;;;;;0.93;0.55;;;;;;;8.16;83.32;100052.59;10395910;28;20049;-72
2023/01/04 12:04:27;;;;;;;2.40;0.60;;;;;;;8.29;81.94;100045.34;10443246;28;20067;-74
2023/01/04 12:09:31;;;;;;;1.80;0.43;;;;;;;8.32;81.41;100040.00;10456377;28;20044;-72
2023/01/04 12:14:36;;;;;;;1.65;0.80;;;;;;;8.26;85.18;100056.72;10455337;28;20431;-72
2023/01/04 12:19:43;;;;;;;1.60;0.60;;;;;;;8.21;85.45;100035.03;10456272;28;20478;-73
2023/01/04 12:24:45;;;;;;;2.13;0.50;;;;;;;8.21;86.59;100019.31;10460054;28;20048;-71
2023/01/04 12:29:54;;;;;;;5.68;0.60;;;;;;;8.06;86.96;100003.97;10455977;28;20038;-72
2023/01/04 12:34:56;;;;;;;0.77;0.70;;;;;;;8.30;85.61;100013.00;10457106;28;20474;-72
2023/01/04 12:39:58;;;;;;;0.85;0.60;;;;;;;8.29;86.47;100027.00;10455700;28;20091;-72
2023/01/04 12:45:02;;;;;;;1.30;0.68;;;;;;;8.34;87.42;99997.19;10455373;28;20210;-72
2023/01/04 12:50:26;;;;;;;0.63;0.55;;;;;;;8.20;89.27;99983.56;10458965;28;20041;-72
2023/01/04 12:55:31;;;;;;;0.80;0.57;;;;;;;8.11;90.19;99972.44;10463580;28;20041;-73
2023/01/04 13:00:50;;;;;;;0.47;0.47;;;;;;;8.33;89.03;99950.94;10463376;28;20413;-72
2023/01/04 13:06:01;;;;;;;1.13;0.60;;;;;;;8.33;89.44;99935.25;10465555;28;20047;-72
2023/01/04 13:11:06;;;;;;;2.03;0.40;;;;;;;8.47;88.23;99945.41;10463397;28;20052;-72
2023/01/04 13:16:29;;;;;;;1.50;0.65;;;;;;;8.56;87.36;99929.47;10463651;28;20106;-72
2023/01/04 13:21:40;;;;;;;0.98;0.55;;;;;;;8.76;86.07;99931.56;10461656;28;20056;-72
2023/01/04 13:26:47;;;;;;;0.98;0.30;;;;;;;8.80;84.27;99912.22;10465076;28;20041;-72
2023/01/04 13:31:53;;;;;;;0.60;0.38;;;;;;;8.88;84.36;99912.03;10462351;28;20037;-72
2023/01/04 13:37:10;;;;;;;1.00;0.40;;;;;;;9.19;80.97;99900.69;10462642;28;20128;-72
2023/01/04 13:42:38;;;;;;;0.45;0.40;;;;;;;9.30;80.14;99889.00;10460502;28;20140;-71
2023/01/04 13:47:42;;;;;;;0.60;0.40;;;;;;;9.19;81.64;99879.72;10459769;28;20501;-73
2023/01/04 13:52:43;;;;;;;0.25;0.25;;;;;;;9.52;78.27;99877.91;10463309;28;20067;-73
2023/01/04 13:58:05;;;;;;;0.38;0.38;;;;;;;9.47;79.54;99864.88;10461258;28;20521;-72
2023/01/04 14:03:24;;;;;;;0.60;0.40;;;;;;;9.42;80.16;99835.31;10459029;28;20516;-73
2023/01/04 14:08:34;;;;;;;0.47;0.40;;;;;;;9.58;77.68;99856.72;10459552;28;20094;-73
2023/01/04 14:13:36;;;;;;;1.02;0.40;;;;;;;9.50;78.34;99856.94;10464895;28;20124;-72
2023/01/04 14:18:38;;;;;;;0.40;0.30;;;;;;;9.47;78.76;99861.41;10459148;28;20045;-72
2023/01/04 14:23:40;;;;;;;0.70;0.40;;;;;;;9.62;77.11;99862.72;10461891;28;20127;-72
2023/01/04 14:28:42;;;;;;;0.50;0.47;;;;;;;9.60;76.84;99845.22;10460162;28;20047;-72
2023/01/04 14:33:52;;;;;;;1.40;0.50;;;;;;;9.37;81.72;99852.94;10464026;28;20069;-72
2023/01/04 14:39:04;;;;;;;1.30;0.30;;;;;;;9.28;82.07;99827.00;10460349;28;20049;-72
2023/01/04 14:44:19;;;;;;;0.63;0.50;;;;;;;9.33;80.77;99836.44;10459946;28;20409;-72
2023/01/04 14:49:21;;;;;;;0.50;0.40;;;;;;;9.29;81.04;99820.84;10459385;28;20041;-72
2023/01/04 14:54:25;;;;;;;0.73;0.63;;;;;;;9.40;79.95;99837.13;10460308;28;20136;-72
2023/01/04 14:59:27;;;;;;;0.82;0.55;;;;;;;9.41;79.81;99823.09;10457527;28;20499;-72
2023/01/04 15:04:29;;;;;;;0.77;0.52;;;;;;;9.52;79.41;99831.53;10459243;28;20091;-72
2023/01/04 15:09:31;;;;;;;0.90;0.40;;;;;;;9.37;82.89;99820.63;10458339;28;20498;-72
2023/01/04 15:14:33;;;;;;;1.48;0.40;;;;;;;9.25;85.87;99822.72;10458753;28;20040;-74
2023/01/04 15:19:35;;;;;;;0.85;0.43;;;;;;;9.13;86.40;99816.97;10459378;28;20040;-72
2023/01/04 15:24:39;;;;;;;0.70;0.50;;;;;;;9.12;85.21;99817.84;10457975;28;20041;-72
2023/01/04 15:29:40;;;;;;;1.02;0.57;;;;;;;9.13;84.89;99811.72;10457685;28;20135;-72
2023/01/04 15:34:42;;;;;;;0.52;0.40;;;;;;;9.12;84.23;99789.00;10457253;28;20466;-72
2023/01/04 15:39:47;;;;;;;1.10;0.80;;;;;;;9.13;84.78;99767.16;10458345;28;20080;-72
2023/01/04 15:44:49;;;;;;;0.73;0.57;;;;;;;9.07;84.83;99774.31;10458847;28;20045;-72
2023/01/04 15:49:52;;;;;;;0.93;0.50;;;;;;;9.24;83.73;99767.66;10457212;28;20460;-73
2023/01/04 15:54:54;;;;;;;0.57;0.50;;;;;;;9.20;85.70;99766.91;10456563;28;20094;-73
2023/01/04 15:59:56;;;;;;;0.90;0.60;;;;;;;9.06;87.19;99754.22;10472397;22;20107;-75
2023/01/04 16:04:58;;;;;;;0.50;0.50;;;;;;;9.25;85.25;99743.16;10462343;28;20045;-75
2023/01/04 16:10:01;;;;;;;0.55;0.50;;;;;;;9.24;89.22;99734.44;10461840;28;20479;-75
2023/01/04 16:15:06;;;;;;;0.40;0.40;;;;;;;9.21;89.36;99744.16;10461708;28;20044;-74
2023/01/04 16:20:10;;;;;;;0.85;0.40;;;;;;;9.37;86.13;99731.44;10460270;28;20490;-75
2023/01/04 16:25:12;;;;;;;0.70;0.40;;;;;;;9.40;86.14;99716.47;10466125;28;20111;-75
2023/01/04 16:30:15;;;;;;;0.30;0.30;;;;;;;9.47;85.69;99738.94;10470297;28;20048;-76
2023/01/04 16:35:17;;;;;;;0.63;0.32;;;;;;;9.53;84.89;99722.16;10469726;28;20108;-76
2023/01/04 16:40:20;;;;;;;1.48;0.40;;;;;;;9.60;84.40;99703.53;10471254;28;20048;-75
2023/01/04 16:45:22;;;;;;;0.30;0.30;;;;;;;9.70;83.20;99679.63;10470217;28;20482;-76
2023/01/04 16:50:23;;;;;;;0.35;0.25;;;;;;;9.82;82.33;99663.44;10472029;28;20040;-76
2023/01/04 16:55:25;;;;;;;0.57;0.30;;;;;;;9.95;81.73;99664.72;10469472;28;20052;-77
2023/01/04 17:00:27;;;;;;;0.25;0.25;;;;;;;10.05;81.15;99686.28;10470386;28;20048;-76
2023/01/04 17:05:29;;;;;;;0.40;0.20;;;;;;;10.04;81.79;99687.19;10451308;28;20417;-76
2023/01/04 17:10:35;;;;;;;1.48;0.32;;;;;;;10.03;82.30;99678.44;10468861;28;20041;-77
2023/01/04 17:15:37;;;;;;;0.45;0.30;;;;;;;10.01;82.10;99687.31;10466843;28;20102;-75
2023/01/04 17:20:52;;;;;;;0.55;0.30;;;;;;;10.08;81.42;99683.53;10464643;28;20044;-76
2023/01/04 17:25:58;;;;;;;0.65;0.50;;;;;;;9.96;82.38;99670.84;10463201;28;20467;-76
2023/01/04 17:31:10;;;;;;;0.57;0.20;;;;;;;10.03;81.60;99672.34;10464268;28;20495;-76
2023/01/04 17:36:14;;;;;;;1.42;0.20;;;;;;;9.97;82.17;99693.56;10462573;28;20132;-75
2023/01/04 17:41:20;;;;;;;0.30;0.30;;;;;;;10.18;79.98;99678.81;10463975;28;20041;-76
2023/01/04 17:46:23;;;;;;;1.33;0.28;;;;;;;10.20;79.53;99674.38;10464654;28;20045;-77
2023/01/04 17:51:25;;;;;;;0.50;0.20;;;;;;;10.31;78.44;99666.97;10463504;28;20037;-77
2023/01/04 17:56:28;;;;;;;0.52;0.40;;;;;;;10.37;77.60;99658.91;10464844;28;20053;-76
2023/01/04 18:01:32;;;;;;;0.30;0.30;;;;;;;10.28;78.07;99641.69;10465879;28;20133;-76
2023/01/04 18:06:35;;;;;;;0.20;0.13;;;;;;;10.42;76.59;99635.06;10448442;28;20048;-78
2023/01/04 18:11:39;;;;;;;0.30;0.30;;;;;;;10.50;76.29;99641.75;10446967;28;20056;-76
2023/01/04 18:16:56;;;;;;;0.10;0.10;;;;;;;10.59;74.77;99630.03;10464607;28;20549;-77
2023/01/04 18:21:59;;;;;;;0.30;0.30;;;;;;;10.69;74.56;99625.28;10462935;28;20071;-75
2023/01/04 18:27:01;;;;;;;0.20;0.20;;;;;;;10.78;73.44;99615.25;10464023;28;20080;-77
2023/01/04 18:32:24;;;;;;;0.20;0.20;;;;;;;10.72;74.39;99620.75;10462268;28;20383;-76
2023/01/04 18:37:25;;;;;;;0.30;0.20;;;;;;;10.78;74.02;99631.03;10461529;28;20426;-76
2023/01/04 18:42:28;;;;;;;0.20;0.10;;;;;;;10.94;73.44;99623.41;10460525;28;20037;-76
2023/01/04 18:47:31;;;;;;;0.28;0.20;;;;;;;11.12;72.85;99606.03;10460450;28;20037;-76
2023/01/04 18:52:34;;;;;;;0.10;0.10;;;;;;;11.08;73.71;99579.00;10460982;28;20041;-77
2023/01/04 18:57:39;;;;;;;0.10;0.10;;;;;;;11.20;73.79;99582.91;10462341;28;20128;-77
2023/01/04 19:02:41;;;;;;;1.77;0.17;;;;;;;11.20;74.02;99556.59;10461980;28;20056;-77
2023/01/04 19:07:44;;;;;;;0.20;0.10;;;;;;;11.27;73.64;99579.06;10461123;28;20033;-76
2023/01/04 19:12:46;;;;;;;0.10;0.10;;;;;;;11.33;73.25;99563.06;10462350;28;20429;-76
2023/01/04 19:17:48;;;;;;;0.20;0.20;;;;;;;11.37;73.05;99555.84;10460753;28;20045;-76
2023/01/04 19:22:50;;;;;;;0.10;0.10;;;;;;;11.40;72.55;99539.94;10459532;28;20049;-75
2023/01/04 19:27:52;;;;;;;0.10;0.10;;;;;;;11.47;71.97;99557.19;10459493;28;20049;-75
2023/01/04 19:32:54;;;;;;;0.17;0.17;;;;;;;11.54;70.74;99545.47;10459044;28;20521;-77
2023/01/04 19:37:56;;;;;;;0.10;0.10;;;;;;;11.41;71.12;99531.13;10460493;28;20407;-75
2023/01/04 19:42:58;;;;;;;0.25;0.15;;;;;;;11.40;71.32;99526.78;10442179;28;20041;-75
2023/01/04 19:48:00;;;;;;;0.10;0.10;;;;;;;11.40;71.54;99537.31;10459156;28;20041;-75
2023/01/04 19:53:02;;;;;;;0.35;0.20;;;;;;;11.26;72.55;99523.91;10441653;28;20077;-76
2023/01/04 19:58:04;;;;;;;0.38;0.22;;;;;;;11.30;72.36;99530.75;10457222;28;20068;-75
2023/01/04 20:03:05;;;;;;;0.28;0.28;;;;;;;11.18;73.48;99542.63;10458669;28;20087;-76
2023/01/04 20:08:07;;;;;;;0.30;0.10;;;;;;;11.21;73.48;99542.50;10459408;28;20048;-75
2023/01/04 20:13:09;;;;;;;0.10;0.10;;;;;;;11.28;73.66;99528.16;10459358;28;20486;-76
2023/01/04 20:18:11;;;;;;;0.10;0.10;;;;;;;11.36;73.42;99541.84;10460196;28;20041;-76
2023/01/04 20:23:15;;;;;;;0.20;0.10;;;;;;;11.25;74.88;99552.00;10460166;28;20036;-77
2023/01/04 20:28:22;;;;;;;0.63;0.10;;;;;;;11.18;75.88;99544.41;10442011;28;20037;-77
2023/01/04 20:33:24;;;;;;;0.10;0.10;;;;;;;11.23;76.61;99561.69;10459512;28;20459;-76
2023/01/04 20:38:25;;;;;;;0.00;0.00;;;;;;;11.03;78.86;99546.75;10456770;28;20053;-76
2023/01/04 20:43:33;;;;;;;0.20;0.20;;;;;;;11.05;79.44;99554.59;10459155;28;20127;-76
2023/01/04 20:48:35;;;;;;;0.30;0.10;;;;;;;10.98;80.48;99561.88;10456560;28;20388;-76
2023/01/04 20:53:37;;;;;;;0.30;0.10;;;;;;;11.00;80.77;99544.25;10456832;28;20053;-75
2023/01/04 20:58:39;;;;;;;0.10;0.10;;;;;;;10.91;81.38;99533.25;10455966;28;20041;-75
2023/01/04 21:03:41;;;;;;;0.40;0.10;;;;;;;10.94;81.16;99504.22;10456562;28;20041;-75
2023/01/04 21:08:44;;;;;;;0.38;0.10;;;;;;;10.89;80.95;99499.16;10456767;28;20037;-75
2023/01/04 21:13:46;;;;;;;0.68;0.20;;;;;;;10.98;79.96;99496.13;10465232;28;20052;-75
2023/01/04 21:18:48;;;;;;;0.40;0.10;;;;;;;11.02;78.80;99470.53;10464448;28;20033;-75
2023/01/04 21:23:50;;;;;;;0.55;0.20;;;;;;;11.00;79.06;99488.19;10463970;28;20443;-75
2023/01/04 21:28:58;;;;;;;0.50;0.10;;;;;;;11.01;80.41;99472.31;10465345;28;20037;-75
2023/01/04 21:34:00;;;;;;;0.45;0.10;;;;;;;10.97;82.07;99486.50;10463954;28;20044;-75
2023/01/04 21:39:06;;;;;;;0.10;0.10;;;;;;;10.90;83.23;99487.72;10462691;28;20395;-74
2023/01/04 21:44:08;;;;;;;0.25;0.10;;;;;;;10.77;85.56;99460.22;10462768;28;20497;-76
2023/01/04 21:49:10;;;;;;;0.35;0.15;;;;;;;10.63;86.95;99452.91;10462262;28;20209;-75
2023/01/04 21:54:12;;;;;;;0.10;0.10;;;;;;;10.65;87.74;99450.22;10463671;28;20068;-76
2023/01/04 21:59:14;;;;;;;0.10;0.00;;;;;;;10.74;86.36;99434.91;10448341;22;20093;-75
2023/01/04 22:04:16;;;;;;;0.75;0.10;;;;;;;10.92;84.37;99442.94;10379984;28;20050;-75
2023/01/04 22:09:18;;;;;;;0.55;0.17;;;;;;;11.01;82.29;99437.28;10383129;28;20093;-75
2023/01/04 22:14:20;;;;;;;0.10;0.10;;;;;;;11.07;80.73;99440.50;10380270;28;20144;-75
2023/01/04 22:19:22;;;;;;;0.70;0.20;;;;;;;11.21;79.10;99432.03;10379251;28;20050;-75
2023/01/04 22:24:24;;;;;;;0.38;0.20;;;;;;;11.36;77.21;99448.91;10378871;28;20056;-75
2023/01/04 22:29:26;;;;;;;0.98;0.38;;;;;;;11.33;76.50;99446.38;10380834;28;20042;-75
2023/01/04 22:34:27;;;;;;;1.90;0.30;;;;;;;11.24;77.53;99431.00;10381440;28;20041;-75
2023/01/04 22:39:29;;;;;;;2.13;0.43;;;;;;;11.26;77.08;99435.28;10378578;28;20064;-76
2023/01/04 22:44:31;;;;;;;0.85;0.30;;;;;;;11.17;76.75;99432.22;10380892;28;20037;-74
2023/01/04 22:49:33;;;;;;;4.43;0.38;;;;;;;11.38;73.58;99418.13;10380243;28;20053;-74
2023/01/04 22:54:34;;;;;;;1.98;0.50;;;;;;;11.33;72.78;99426.22;10379803;28;20050;-75
2023/01/04 22:59:36;;;;;;;1.45;0.43;;;;;;;11.34;72.41;99420.03;10379017;28;20125;-75
2023/01/04 23:04:38;;;;;;;1.85;0.40;;;;;;;11.20;73.20;99418.91;10377294;28;20111;-75
2023/01/04 23:09:40;;;;;;;1.20;0.30;;;;;;;11.28;72.91;99424.69;10377974;28;20033;-75
2023/01/04 23:14:42;;;;;;;4.22;0.45;;;;;;;11.34;72.38;99430.56;10379215;28;20535;-75
2023/01/04 23:19:43;;;;;;;1.42;0.60;;;;;;;11.34;72.63;99422.66;10360554;28;20113;-75
2023/01/04 23:24:45;;;;;;;1.35;0.43;;;;;;;11.06;75.58;99441.41;10377119;28;20068;-75
2023/01/04 23:29:47;;;;;;;2.15;0.30;;;;;;;10.96;78.15;99440.09;10376237;28;20487;-76
2023/01/04 23:34:50;;;;;;;1.30;0.38;;;;;;;10.87;79.52;99443.13;10377283;28;20524;-75
2023/01/04 23:39:51;;;;;;;1.52;0.38;;;;;;;10.76;80.30;99427.81;10376663;28;20045;-76
2023/01/04 23:44:54;;;;;;;1.65;0.30;;;;;;;10.81;80.34;99422.38;10376178;28;20052;-75
2023/01/04 23:49:55;;;;;;;1.80;0.30;;;;;;;10.77;80.19;99415.53;10375547;28;20041;-75
2023/01/04 23:54:57;;;;;;;0.75;0.30;;;;;;;10.81;79.64;99410.06;10376557;28;20056;-74
2023/01/04 23:59:59;;;;;;;1.55;0.30;;;;;;;10.90;78.99;99413.25;10378238;28;20053;-75
